sensor_id;sensor_type;location;lat;lon;timestamp;temperature;humidity
78649;DHT22;67962;47.310;9.642;2023-05-10T00:02:11;16.70;73.80
78649;DHT22;67962;47.310;9.642;2023-05-10T00:04:37;16.70;73.50
78649;DHT22;67962;47.310;9.642;2023-05-10T00:07:02;16.70;73.60
78649;DHT22;67962;47.310;9.642;2023-05-10T00:09:28;16.70;73.60
78649;DHT22;67962;47.310;9.642;2023-05-10T00:11:54;16.60;72.90
78649;DHT22;67962;47.310;9.642;2023-05-10T00:14:19;16.50;73.50
78649;DHT22;67962;47.310;9.642;2023-05-10T00:16:45;16.50;73.80
78649;DHT22;67962;47.310;9.642;2023-05-10T00:19:11;16.40;74.30
78649;DHT22;67962;47.310;9.642;2023-05-10T00:21:36;16.30;74.70
78649;DHT22;67962;47.310;9.642;2023-05-10T00:24:02;16.30;74.60
78649;DHT22;67962;47.310;9.642;2023-05-10T00:26:28;16.40;74.40
78649;DHT22;67962;47.310;9.642;2023-05-10T00:28:53;16.40;73.60
78649;DHT22;67962;47.310;9.642;2023-05-10T00:31:19;16.40;74.10
78649;DHT22;67962;47.310;9.642;2023-05-10T00:33:45;16.40;74.20
78649;DHT22;67962;47.310;9.642;2023-05-10T00:36:11;16.40;74.30
78649;DHT22;67962;47.310;9.642;2023-05-10T00:38:37;16.40;74.20
78649;DHT22;67962;47.310;9.642;2023-05-10T00:41:03;16.40;74.40
78649;DHT22;67962;47.310;9.642;2023-05-10T00:43:29;16.40;74.40
78649;DHT22;67962;47.310;9.642;2023-05-10T00:45:55;16.20;74.80
78649;DHT22;67962;47.310;9.642;2023-05-10T00:48:21;16.10;75.40
78649;DHT22;67962;47.310;9.642;2023-05-10T00:50:47;16.00;75.40
78649;DHT22;67962;47.310;9.642;2023-05-10T00:53:13;15.90;75.50
78649;DHT22;67962;47.310;9.642;2023-05-10T00:55:39;15.90;76.00
78649;DHT22;67962;47.310;9.642;2023-05-10T00:58:05;15.80;75.20
78649;DHT22;67962;47.310;9.642;2023-05-10T01:00:33;15.60;75.30
78649;DHT22;67962;47.310;9.642;2023-05-10T01:02:59;15.60;75.00
78649;DHT22;67962;47.310;9.642;2023-05-10T01:05:25;15.50;75.80
78649;DHT22;67962;47.310;9.642;2023-05-10T01:07:52;15.40;75.20
78649;DHT22;67962;47.310;9.642;2023-05-10T01:10:18;15.20;74.40
78649;DHT22;67962;47.310;9.642;2023-05-10T01:12:46;15.10;74.90
78649;DHT22;67962;47.310;9.642;2023-05-10T01:15:12;15.10;74.80
78649;DHT22;67962;47.310;9.642;2023-05-10T01:17:40;15.10;74.20
78649;DHT22;67962;47.310;9.642;2023-05-10T01:20:09;15.00;75.60
78649;DHT22;67962;47.310;9.642;2023-05-10T01:30:53;14.60;74.70
78649;DHT22;67962;47.310;9.642;2023-05-10T01:33:28;14.60;74.40
78649;DHT22;67962;47.310;9.642;2023-05-10T01:41:36;14.50;74.90
78649;DHT22;67962;47.310;9.642;2023-05-10T01:44:22;14.50;74.00
78649;DHT22;67962;47.310;9.642;2023-05-10T01:46:55;14.40;74.10
78649;DHT22;67962;47.310;9.642;2023-05-10T01:49:28;14.40;74.10
78649;DHT22;67962;47.310;9.642;2023-05-10T01:52:08;14.50;73.70
78649;DHT22;67962;47.310;9.642;2023-05-10T01:54:35;14.50;75.00
78649;DHT22;67962;47.310;9.642;2023-05-10T01:57:06;14.50;73.70
78649;DHT22;67962;47.310;9.642;2023-05-10T01:59:35;14.50;74.40
78649;DHT22;67962;47.310;9.642;2023-05-10T02:02:02;14.50;75.60
78649;DHT22;67962;47.310;9.642;2023-05-10T02:04:30;14.60;74.30
78649;DHT22;67962;47.310;9.642;2023-05-10T02:06:57;14.50;74.70
78649;DHT22;67962;47.310;9.642;2023-05-10T02:09:23;14.40;74.40
78649;DHT22;67962;47.310;9.642;2023-05-10T02:11:51;14.40;74.70
78649;DHT22;67962;47.310;9.642;2023-05-10T02:14:18;14.50;74.00
78649;DHT22;67962;47.310;9.642;2023-05-10T02:16:46;14.50;73.90
78649;DHT22;67962;47.310;9.642;2023-05-10T02:19:14;14.40;75.20
78649;DHT22;67962;47.310;9.642;2023-05-10T02:21:41;14.30;75.10
78649;DHT22;67962;47.310;9.642;2023-05-10T02:24:08;14.40;74.60
78649;DHT22;67962;47.310;9.642;2023-05-10T02:26:35;14.50;74.10
78649;DHT22;67962;47.310;9.642;2023-05-10T02:29:02;14.50;74.30
78649;DHT22;67962;47.310;9.642;2023-05-10T02:31:31;14.60;74.30
78649;DHT22;67962;47.310;9.642;2023-05-10T02:33:58;14.60;73.40
78649;DHT22;67962;47.310;9.642;2023-05-10T02:36:26;14.50;74.50
78649;DHT22;67962;47.310;9.642;2023-05-10T02:38:53;14.60;74.50
78649;DHT22;67962;47.310;9.642;2023-05-10T02:41:20;14.60;73.40
78649;DHT22;67962;47.310;9.642;2023-05-10T02:43:50;14.50;74.10
78649;DHT22;67962;47.310;9.642;2023-05-10T02:46:17;14.50;74.80
78649;DHT22;67962;47.310;9.642;2023-05-10T02:48:43;14.50;75.40
78649;DHT22;67962;47.310;9.642;2023-05-10T02:51:11;14.50;75.00
78649;DHT22;67962;47.310;9.642;2023-05-10T02:53:38;14.50;75.50
78649;DHT22;67962;47.310;9.642;2023-05-10T02:56:14;14.50;74.40
78649;DHT22;67962;47.310;9.642;2023-05-10T02:58:40;14.50;73.80
78649;DHT22;67962;47.310;9.642;2023-05-10T03:01:06;14.60;75.10
78649;DHT22;67962;47.310;9.642;2023-05-10T03:03:33;14.60;75.50
78649;DHT22;67962;47.310;9.642;2023-05-10T03:05:58;14.60;75.60
78649;DHT22;67962;47.310;9.642;2023-05-10T03:08:24;14.70;75.70
78649;DHT22;67962;47.310;9.642;2023-05-10T03:11:01;14.80;75.90
78649;DHT22;67962;47.310;9.642;2023-05-10T03:13:39;14.80;75.80
78649;DHT22;67962;47.310;9.642;2023-05-10T03:16:10;14.70;75.20
78649;DHT22;67962;47.310;9.642;2023-05-10T03:18:44;14.60;75.70
78649;DHT22;67962;47.310;9.642;2023-05-10T03:21:13;14.60;75.20
78649;DHT22;67962;47.310;9.642;2023-05-10T03:23:46;14.60;73.50
78649;DHT22;67962;47.310;9.642;2023-05-10T03:26:20;14.70;74.40
78649;DHT22;67962;47.310;9.642;2023-05-10T03:28:48;14.70;74.40
78649;DHT22;67962;47.310;9.642;2023-05-10T03:31:14;14.70;74.10
78649;DHT22;67962;47.310;9.642;2023-05-10T03:33:50;14.60;73.20
78649;DHT22;67962;47.310;9.642;2023-05-10T03:36:16;14.60;71.90
78649;DHT22;67962;47.310;9.642;2023-05-10T03:38:41;14.70;72.90
78649;DHT22;67962;47.310;9.642;2023-05-10T03:41:07;14.70;74.40
78649;DHT22;67962;47.310;9.642;2023-05-10T03:43:33;14.70;73.80
78649;DHT22;67962;47.310;9.642;2023-05-10T03:46:02;14.60;72.90
78649;DHT22;67962;47.310;9.642;2023-05-10T03:48:27;14.60;73.20
78649;DHT22;67962;47.310;9.642;2023-05-10T03:50:53;14.50;72.00
78649;DHT22;67962;47.310;9.642;2023-05-10T03:53:19;14.50;72.20
78649;DHT22;67962;47.310;9.642;2023-05-10T03:55:45;14.50;72.50
78649;DHT22;67962;47.310;9.642;2023-05-10T03:58:11;14.60;72.30
78649;DHT22;67962;47.310;9.642;2023-05-10T04:00:37;14.70;71.60
78649;DHT22;67962;47.310;9.642;2023-05-10T04:03:09;14.60;72.40
78649;DHT22;67962;47.310;9.642;2023-05-10T04:05:35;14.70;72.50
78649;DHT22;67962;47.310;9.642;2023-05-10T04:08:01;14.70;72.60
78649;DHT22;67962;47.310;9.642;2023-05-10T04:10:27;14.80;72.80
78649;DHT22;67962;47.310;9.642;2023-05-10T04:12:53;14.90;73.40
78649;DHT22;67962;47.310;9.642;2023-05-10T04:15:19;14.80;73.70
78649;DHT22;67962;47.310;9.642;2023-05-10T04:17:45;14.90;73.90
78649;DHT22;67962;47.310;9.642;2023-05-10T04:20:11;14.90;74.20
78649;DHT22;67962;47.310;9.642;2023-05-10T04:22:37;14.90;74.60
78649;DHT22;67962;47.310;9.642;2023-05-10T04:25:03;14.90;74.80
78649;DHT22;67962;47.310;9.642;2023-05-10T04:27:30;14.90;75.00
78649;DHT22;67962;47.310;9.642;2023-05-10T04:29:56;15.00;75.10
78649;DHT22;67962;47.310;9.642;2023-05-10T04:32:22;15.00;74.90
78649;DHT22;67962;47.310;9.642;2023-05-10T04:34:48;14.90;75.20
78649;DHT22;67962;47.310;9.642;2023-05-10T04:37:13;14.90;75.50
78649;DHT22;67962;47.310;9.642;2023-05-10T04:39:39;15.00;75.40
78649;DHT22;67962;47.310;9.642;2023-05-10T04:42:05;15.00;75.40
78649;DHT22;67962;47.310;9.642;2023-05-10T04:44:31;15.00;75.50
78649;DHT22;67962;47.310;9.642;2023-05-10T04:46:57;15.00;75.60
78649;DHT22;67962;47.310;9.642;2023-05-10T04:49:23;15.00;75.80
78649;DHT22;67962;47.310;9.642;2023-05-10T04:51:49;15.00;75.70
78649;DHT22;67962;47.310;9.642;2023-05-10T04:54:14;15.10;75.20
78649;DHT22;67962;47.310;9.642;2023-05-10T04:56:40;15.30;74.90
78649;DHT22;67962;47.310;9.642;2023-05-10T04:59:06;15.20;74.70
78649;DHT22;67962;47.310;9.642;2023-05-10T05:01:32;15.30;74.70
78649;DHT22;67962;47.310;9.642;2023-05-10T05:03:58;15.40;74.60
78649;DHT22;67962;47.310;9.642;2023-05-10T05:06:23;15.40;74.00
78649;DHT22;67962;47.310;9.642;2023-05-10T05:08:50;15.30;73.90
78649;DHT22;67962;47.310;9.642;2023-05-10T05:11:17;15.20;73.70
78649;DHT22;67962;47.310;9.642;2023-05-10T05:13:43;15.30;74.20
78649;DHT22;67962;47.310;9.642;2023-05-10T05:16:09;15.40;74.20
78649;DHT22;67962;47.310;9.642;2023-05-10T05:18:36;15.40;74.20
78649;DHT22;67962;47.310;9.642;2023-05-10T05:21:02;15.40;74.10
78649;DHT22;67962;47.310;9.642;2023-05-10T05:23:27;15.40;74.30
78649;DHT22;67962;47.310;9.642;2023-05-10T05:25:53;15.40;72.60
78649;DHT22;67962;47.310;9.642;2023-05-10T05:28:20;15.50;72.90
78649;DHT22;67962;47.310;9.642;2023-05-10T05:30:46;15.50;72.90
78649;DHT22;67962;47.310;9.642;2023-05-10T05:33:13;15.60;73.20
78649;DHT22;67962;47.310;9.642;2023-05-10T05:35:40;15.70;73.00
78649;DHT22;67962;47.310;9.642;2023-05-10T05:38:06;15.70;72.60
78649;DHT22;67962;47.310;9.642;2023-05-10T05:40:32;15.70;72.00
78649;DHT22;67962;47.310;9.642;2023-05-10T05:42:57;15.70;72.30
78649;DHT22;67962;47.310;9.642;2023-05-10T05:45:23;15.50;72.40
78649;DHT22;67962;47.310;9.642;2023-05-10T05:47:49;15.60;72.70
78649;DHT22;67962;47.310;9.642;2023-05-10T05:50:14;15.60;73.40
78649;DHT22;67962;47.310;9.642;2023-05-10T05:52:40;15.50;73.90
78649;DHT22;67962;47.310;9.642;2023-05-10T05:55:06;15.60;73.60
78649;DHT22;67962;47.310;9.642;2023-05-10T05:57:32;15.50;73.60
78649;DHT22;67962;47.310;9.642;2023-05-10T05:59:57;15.50;73.60
78649;DHT22;67962;47.310;9.642;2023-05-10T06:02:23;15.60;73.90
78649;DHT22;67962;47.310;9.642;2023-05-10T06:04:49;15.60;73.60
78649;DHT22;67962;47.310;9.642;2023-05-10T06:07:15;15.60;73.50
78649;DHT22;67962;47.310;9.642;2023-05-10T06:09:41;15.70;73.20
78649;DHT22;67962;47.310;9.642;2023-05-10T06:12:07;15.70;73.50
78649;DHT22;67962;47.310;9.642;2023-05-10T06:14:33;15.70;74.60
78649;DHT22;67962;47.310;9.642;2023-05-10T06:16:58;15.80;72.90
78649;DHT22;67962;47.310;9.642;2023-05-10T06:19:25;15.80;73.50
78649;DHT22;67962;47.310;9.642;2023-05-10T06:21:51;15.80;72.80
78649;DHT22;67962;47.310;9.642;2023-05-10T06:24:17;15.80;73.40
78649;DHT22;67962;47.310;9.642;2023-05-10T06:26:43;15.80;74.60
78649;DHT22;67962;47.310;9.642;2023-05-10T06:29:08;15.80;73.60
78649;DHT22;67962;47.310;9.642;2023-05-10T06:31:34;15.80;73.50
78649;DHT22;67962;47.310;9.642;2023-05-10T06:34:00;15.90;73.20
78649;DHT22;67962;47.310;9.642;2023-05-10T06:36:25;15.90;73.60
78649;DHT22;67962;47.310;9.642;2023-05-10T06:38:53;15.90;74.00
78649;DHT22;67962;47.310;9.642;2023-05-10T06:41:19;15.80;74.00
78649;DHT22;67962;47.310;9.642;2023-05-10T06:43:45;15.90;74.00
78649;DHT22;67962;47.310;9.642;2023-05-10T06:46:11;15.80;74.10
78649;DHT22;67962;47.310;9.642;2023-05-10T06:48:37;15.70;73.30
78649;DHT22;67962;47.310;9.642;2023-05-10T06:51:02;15.70;73.80
78649;DHT22;67962;47.310;9.642;2023-05-10T06:53:28;15.80;73.90
78649;DHT22;67962;47.310;9.642;2023-05-10T06:55:54;15.90;73.90
78649;DHT22;67962;47.310;9.642;2023-05-10T06:58:19;16.00;73.40
78649;DHT22;67962;47.310;9.642;2023-05-10T07:00:45;16.00;73.20
78649;DHT22;67962;47.310;9.642;2023-05-10T07:03:12;16.10;73.00
78649;DHT22;67962;47.310;9.642;2023-05-10T07:05:38;16.10;72.90
78649;DHT22;67962;47.310;9.642;2023-05-10T07:08:03;16.20;72.60
78649;DHT22;67962;47.310;9.642;2023-05-10T07:10:29;16.20;72.60
78649;DHT22;67962;47.310;9.642;2023-05-10T07:12:55;16.20;72.50
78649;DHT22;67962;47.310;9.642;2023-05-10T07:15:21;16.20;72.50
78649;DHT22;67962;47.310;9.642;2023-05-10T07:17:46;16.20;72.50
78649;DHT22;67962;47.310;9.642;2023-05-10T07:20:12;16.20;72.40
78649;DHT22;67962;47.310;9.642;2023-05-10T07:22:38;16.10;72.40
78649;DHT22;67962;47.310;9.642;2023-05-10T07:25:04;16.10;72.40
78649;DHT22;67962;47.310;9.642;2023-05-10T07:27:30;16.00;72.60
78649;DHT22;67962;47.310;9.642;2023-05-10T07:29:55;16.00;72.60
78649;DHT22;67962;47.310;9.642;2023-05-10T07:32:22;15.90;72.70
78649;DHT22;67962;47.310;9.642;2023-05-10T07:34:47;15.70;73.10
78649;DHT22;67962;47.310;9.642;2023-05-10T07:37:13;15.70;72.60
78649;DHT22;67962;47.310;9.642;2023-05-10T07:39:39;15.70;72.20
78649;DHT22;67962;47.310;9.642;2023-05-10T07:42:05;15.70;72.40
78649;DHT22;67962;47.310;9.642;2023-05-10T07:44:31;15.70;72.20
78649;DHT22;67962;47.310;9.642;2023-05-10T07:46:56;15.70;72.60
78649;DHT22;67962;47.310;9.642;2023-05-10T07:49:22;15.70;73.20
78649;DHT22;67962;47.310;9.642;2023-05-10T07:51:49;15.70;73.80
78649;DHT22;67962;47.310;9.642;2023-05-10T07:54:15;15.70;73.70
78649;DHT22;67962;47.310;9.642;2023-05-10T07:56:41;15.70;73.40
78649;DHT22;67962;47.310;9.642;2023-05-10T07:59:15;15.70;72.00
78649;DHT22;67962;47.310;9.642;2023-05-10T08:01:41;15.70;71.90
78649;DHT22;67962;47.310;9.642;2023-05-10T08:04:07;15.70;72.40
78649;DHT22;67962;47.310;9.642;2023-05-10T08:06:33;15.70;72.40
78649;DHT22;67962;47.310;9.642;2023-05-10T08:08:58;15.80;72.10
78649;DHT22;67962;47.310;9.642;2023-05-10T08:11:24;15.80;71.90
78649;DHT22;67962;47.310;9.642;2023-05-10T08:13:50;15.80;71.50
78649;DHT22;67962;47.310;9.642;2023-05-10T08:16:17;15.80;71.00
78649;DHT22;67962;47.310;9.642;2023-05-10T08:18:43;15.90;71.00
78649;DHT22;67962;47.310;9.642;2023-05-10T08:21:10;15.90;71.40
78649;DHT22;67962;47.310;9.642;2023-05-10T08:23:36;15.80;70.80
78649;DHT22;67962;47.310;9.642;2023-05-10T08:26:02;15.80;70.70
78649;DHT22;67962;47.310;9.642;2023-05-10T08:28:28;15.80;70.30
78649;DHT22;67962;47.310;9.642;2023-05-10T08:30:53;15.80;69.70
78649;DHT22;67962;47.310;9.642;2023-05-10T08:33:19;15.80;69.50
78649;DHT22;67962;47.310;9.642;2023-05-10T08:35:45;15.80;69.70
78649;DHT22;67962;47.310;9.642;2023-05-10T08:38:11;15.90;69.50
78649;DHT22;67962;47.310;9.642;2023-05-10T08:40:38;15.90;69.50
78649;DHT22;67962;47.310;9.642;2023-05-10T08:43:07;16.00;69.30
78649;DHT22;67962;47.310;9.642;2023-05-10T08:45:41;16.00;69.00
78649;DHT22;67962;47.310;9.642;2023-05-10T08:48:08;16.00;69.70
78649;DHT22;67962;47.310;9.642;2023-05-10T08:50:39;16.00;69.70
78649;DHT22;67962;47.310;9.642;2023-05-10T08:53:13;16.00;70.50
78649;DHT22;67962;47.310;9.642;2023-05-10T08:55:41;16.10;70.30
78649;DHT22;67962;47.310;9.642;2023-05-10T08:58:09;16.10;69.80
78649;DHT22;67962;47.310;9.642;2023-05-10T09:00:35;16.20;69.10
78649;DHT22;67962;47.310;9.642;2023-05-10T09:03:04;16.20;69.10
78649;DHT22;67962;47.310;9.642;2023-05-10T09:05:30;16.10;69.80
78649;DHT22;67962;47.310;9.642;2023-05-10T09:07:56;16.00;69.90
78649;DHT22;67962;47.310;9.642;2023-05-10T09:10:22;16.10;68.70
78649;DHT22;67962;47.310;9.642;2023-05-10T09:12:51;16.10;68.20
78649;DHT22;67962;47.310;9.642;2023-05-10T09:15:17;16.00;68.70
78649;DHT22;67962;47.310;9.642;2023-05-10T09:17:44;16.10;68.90
78649;DHT22;67962;47.310;9.642;2023-05-10T09:20:10;16.20;68.40
78649;DHT22;67962;47.310;9.642;2023-05-10T09:22:36;16.10;67.90
78649;DHT22;67962;47.310;9.642;2023-05-10T09:25:10;16.20;68.00
78649;DHT22;67962;47.310;9.642;2023-05-10T09:27:37;16.20;68.20
78649;DHT22;67962;47.310;9.642;2023-05-10T09:30:04;16.20;67.00
78649;DHT22;67962;47.310;9.642;2023-05-10T09:32:41;16.30;67.40
78649;DHT22;67962;47.310;9.642;2023-05-10T09:35:14;16.30;67.10
78649;DHT22;67962;47.310;9.642;2023-05-10T09:37:44;16.30;68.00
78649;DHT22;67962;47.310;9.642;2023-05-10T09:40:18;16.30;68.20
78649;DHT22;67962;47.310;9.642;2023-05-10T09:42:56;16.40;67.60
78649;DHT22;67962;47.310;9.642;2023-05-10T09:45:24;16.40;66.40
78649;DHT22;67962;47.310;9.642;2023-05-10T09:47:50;16.40;66.30
78649;DHT22;67962;47.310;9.642;2023-05-10T09:50:16;16.40;67.00
78649;DHT22;67962;47.310;9.642;2023-05-10T09:52:53;16.30;67.50
78649;DHT22;67962;47.310;9.642;2023-05-10T09:55:23;16.10;68.10
78649;DHT22;67962;47.310;9.642;2023-05-10T09:57:59;16.20;68.20
78649;DHT22;67962;47.310;9.642;2023-05-10T10:00:26;16.20;68.40
78649;DHT22;67962;47.310;9.642;2023-05-10T10:02:57;16.20;68.20
78649;DHT22;67962;47.310;9.642;2023-05-10T10:05:34;16.20;68.10
78649;DHT22;67962;47.310;9.642;2023-05-10T10:08:04;16.30;67.00
78649;DHT22;67962;47.310;9.642;2023-05-10T10:10:31;16.30;67.20
78649;DHT22;67962;47.310;9.642;2023-05-10T10:12:57;16.20;67.70
78649;DHT22;67962;47.310;9.642;2023-05-10T10:15:24;16.00;68.40
78649;DHT22;67962;47.310;9.642;2023-05-10T10:17:51;15.90;69.20
78649;DHT22;67962;47.310;9.642;2023-05-10T10:20:19;16.00;69.40
78649;DHT22;67962;47.310;9.642;2023-05-10T10:22:45;16.10;69.20
78649;DHT22;67962;47.310;9.642;2023-05-10T10:25:14;16.00;69.30
78649;DHT22;67962;47.310;9.642;2023-05-10T10:27:59;16.00;69.90
78649;DHT22;67962;47.310;9.642;2023-05-10T10:30:42;15.90;70.50
78649;DHT22;67962;47.310;9.642;2023-05-10T10:33:38;15.80;71.40
78649;DHT22;67962;47.310;9.642;2023-05-10T10:36:06;15.80;71.60
78649;DHT22;67962;47.310;9.642;2023-05-10T10:41:32;15.80;71.80
78649;DHT22;67962;47.310;9.642;2023-05-10T10:55:07;15.90;69.60
78649;DHT22;67962;47.310;9.642;2023-05-10T11:02:49;16.20;69.50
78649;DHT22;67962;47.310;9.642;2023-05-10T11:05:36;16.30;69.50
78649;DHT22;67962;47.310;9.642;2023-05-10T11:08:29;16.40;68.90
78649;DHT22;67962;47.310;9.642;2023-05-10T11:16:20;16.40;69.60
78649;DHT22;67962;47.310;9.642;2023-05-10T11:19:12;16.50;68.10
78649;DHT22;67962;47.310;9.642;2023-05-10T11:21:49;16.40;67.60
78649;DHT22;67962;47.310;9.642;2023-05-10T11:24:20;16.50;67.20
78649;DHT22;67962;47.310;9.642;2023-05-10T11:26:47;16.40;67.10
78649;DHT22;67962;47.310;9.642;2023-05-10T11:29:15;16.50;66.60
78649;DHT22;67962;47.310;9.642;2023-05-10T11:31:45;16.50;67.00
78649;DHT22;67962;47.310;9.642;2023-05-10T11:34:22;16.60;66.70
78649;DHT22;67962;47.310;9.642;2023-05-10T11:36:51;16.60;66.70
78649;DHT22;67962;47.310;9.642;2023-05-10T11:39:17;16.60;66.70
78649;DHT22;67962;47.310;9.642;2023-05-10T11:41:42;16.60;65.60
78649;DHT22;67962;47.310;9.642;2023-05-10T11:44:09;16.60;65.60
78649;DHT22;67962;47.310;9.642;2023-05-10T11:46:36;16.60;65.80
78649;DHT22;67962;47.310;9.642;2023-05-10T11:49:02;16.60;65.30
78649;DHT22;67962;47.310;9.642;2023-05-10T11:51:29;16.60;64.70
78649;DHT22;67962;47.310;9.642;2023-05-10T11:53:58;16.60;64.30
78649;DHT22;67962;47.310;9.642;2023-05-10T11:56:24;16.60;64.60
78649;DHT22;67962;47.310;9.642;2023-05-10T11:58:56;16.60;65.30
78649;DHT22;67962;47.310;9.642;2023-05-10T12:01:23;16.60;65.30
78649;DHT22;67962;47.310;9.642;2023-05-10T12:03:50;16.60;65.00
78649;DHT22;67962;47.310;9.642;2023-05-10T12:06:18;16.60;65.00
78649;DHT22;67962;47.310;9.642;2023-05-10T12:08:45;16.70;65.60
78649;DHT22;67962;47.310;9.642;2023-05-10T12:11:17;16.60;65.50
78649;DHT22;67962;47.310;9.642;2023-05-10T12:13:44;16.70;65.60
78649;DHT22;67962;47.310;9.642;2023-05-10T12:16:17;16.50;65.40
78649;DHT22;67962;47.310;9.642;2023-05-10T12:18:44;16.30;66.60
78649;DHT22;67962;47.310;9.642;2023-05-10T12:21:11;16.30;66.90
78649;DHT22;67962;47.310;9.642;2023-05-10T12:23:38;16.20;67.50
78649;DHT22;67962;47.310;9.642;2023-05-10T12:26:04;16.20;67.40
78649;DHT22;67962;47.310;9.642;2023-05-10T12:28:31;16.20;66.90
78649;DHT22;67962;47.310;9.642;2023-05-10T12:31:00;16.20;65.70
78649;DHT22;67962;47.310;9.642;2023-05-10T12:33:26;16.20;66.50
78649;DHT22;67962;47.310;9.642;2023-05-10T12:35:54;16.30;66.00
78649;DHT22;67962;47.310;9.642;2023-05-10T12:38:32;16.30;66.00
78649;DHT22;67962;47.310;9.642;2023-05-10T12:41:00;16.40;67.10
78649;DHT22;67962;47.310;9.642;2023-05-10T12:43:26;16.30;66.90
78649;DHT22;67962;47.310;9.642;2023-05-10T12:45:52;16.30;67.10
78649;DHT22;67962;47.310;9.642;2023-05-10T12:48:18;16.20;67.80
78649;DHT22;67962;47.310;9.642;2023-05-10T12:50:43;16.20;67.80
78649;DHT22;67962;47.310;9.642;2023-05-10T12:53:09;16.20;68.30
78649;DHT22;67962;47.310;9.642;2023-05-10T12:55:35;16.20;68.50
78649;DHT22;67962;47.310;9.642;2023-05-10T12:58:00;16.20;68.50
78649;DHT22;67962;47.310;9.642;2023-05-10T13:00:26;16.20;68.70
78649;DHT22;67962;47.310;9.642;2023-05-10T13:02:52;16.10;67.00
78649;DHT22;67962;47.310;9.642;2023-05-10T13:05:18;16.10;67.40
78649;DHT22;67962;47.310;9.642;2023-05-10T13:07:44;16.10;67.70
78649;DHT22;67962;47.310;9.642;2023-05-10T13:10:10;16.00;68.00
78649;DHT22;67962;47.310;9.642;2023-05-10T13:12:36;16.00;68.60
78649;DHT22;67962;47.310;9.642;2023-05-10T13:15:02;15.90;68.80
78649;DHT22;67962;47.310;9.642;2023-05-10T13:17:28;15.90;68.70
78649;DHT22;67962;47.310;9.642;2023-05-10T13:19:54;16.00;66.40
78649;DHT22;67962;47.310;9.642;2023-05-10T13:22:20;16.00;66.50
78649;DHT22;67962;47.310;9.642;2023-05-10T13:24:46;15.90;65.80
78649;DHT22;67962;47.310;9.642;2023-05-10T13:27:12;15.90;66.40
78649;DHT22;67962;47.310;9.642;2023-05-10T13:29:37;15.90;67.30
78649;DHT22;67962;47.310;9.642;2023-05-10T13:32:03;16.00;68.20
78649;DHT22;67962;47.310;9.642;2023-05-10T13:34:29;16.00;67.00
78649;DHT22;67962;47.310;9.642;2023-05-10T13:36:54;16.20;67.00
78649;DHT22;67962;47.310;9.642;2023-05-10T13:39:22;16.20;67.30
78649;DHT22;67962;47.310;9.642;2023-05-10T13:41:47;16.10;66.90
78649;DHT22;67962;47.310;9.642;2023-05-10T13:44:14;16.10;68.40
78649;DHT22;67962;47.310;9.642;2023-05-10T13:46:41;16.10;66.20
78649;DHT22;67962;47.310;9.642;2023-05-10T13:49:08;16.10;67.90
78649;DHT22;67962;47.310;9.642;2023-05-10T13:51:34;16.10;69.00
78649;DHT22;67962;47.310;9.642;2023-05-10T13:54:01;16.10;69.10
78649;DHT22;67962;47.310;9.642;2023-05-10T13:56:27;16.10;69.80
78649;DHT22;67962;47.310;9.642;2023-05-10T13:58:53;16.10;69.80
78649;DHT22;67962;47.310;9.642;2023-05-10T14:01:18;16.10;69.00
78649;DHT22;67962;47.310;9.642;2023-05-10T14:03:44;16.10;67.50
78649;DHT22;67962;47.310;9.642;2023-05-10T14:06:10;16.20;67.20
78649;DHT22;67962;47.310;9.642;2023-05-10T14:08:36;16.20;66.00
78649;DHT22;67962;47.310;9.642;2023-05-10T14:11:02;16.10;65.60
78649;DHT22;67962;47.310;9.642;2023-05-10T14:13:28;16.10;66.20
78649;DHT22;67962;47.310;9.642;2023-05-10T14:15:55;16.00;67.00
78649;DHT22;67962;47.310;9.642;2023-05-10T14:18:20;16.00;68.20
78649;DHT22;67962;47.310;9.642;2023-05-10T14:20:46;16.10;68.50
78649;DHT22;67962;47.310;9.642;2023-05-10T14:23:12;16.10;68.40
78649;DHT22;67962;47.310;9.642;2023-05-10T14:25:40;16.00;68.60
78649;DHT22;67962;47.310;9.642;2023-05-10T14:28:06;16.00;69.20
78649;DHT22;67962;47.310;9.642;2023-05-10T14:30:32;15.90;69.50
78649;DHT22;67962;47.310;9.642;2023-05-10T14:33:00;16.00;69.30
78649;DHT22;67962;47.310;9.642;2023-05-10T14:35:27;16.10;69.80
78649;DHT22;67962;47.310;9.642;2023-05-10T14:37:53;16.20;68.80
78649;DHT22;67962;47.310;9.642;2023-05-10T14:40:18;16.30;68.30
78649;DHT22;67962;47.310;9.642;2023-05-10T14:42:44;16.30;68.30
78649;DHT22;67962;47.310;9.642;2023-05-10T14:45:10;16.40;67.70
78649;DHT22;67962;47.310;9.642;2023-05-10T14:47:37;16.40;67.10
78649;DHT22;67962;47.310;9.642;2023-05-10T14:50:03;16.40;67.60
78649;DHT22;67962;47.310;9.642;2023-05-10T14:52:29;16.40;67.10
78649;DHT22;67962;47.310;9.642;2023-05-10T14:54:54;16.30;66.30
78649;DHT22;67962;47.310;9.642;2023-05-10T14:57:20;16.30;64.00
78649;DHT22;67962;47.310;9.642;2023-05-10T14:59:46;16.20;64.80
78649;DHT22;67962;47.310;9.642;2023-05-10T15:02:11;16.00;66.00
78649;DHT22;67962;47.310;9.642;2023-05-10T15:04:37;15.90;65.50
78649;DHT22;67962;47.310;9.642;2023-05-10T15:07:03;15.80;66.70
78649;DHT22;67962;47.310;9.642;2023-05-10T15:09:29;15.80;66.80
78649;DHT22;67962;47.310;9.642;2023-05-10T15:11:55;15.80;66.40
78649;DHT22;67962;47.310;9.642;2023-05-10T15:14:22;15.80;66.70
78649;DHT22;67962;47.310;9.642;2023-05-10T15:16:47;15.80;65.30
78649;DHT22;67962;47.310;9.642;2023-05-10T15:19:13;15.70;66.70
78649;DHT22;67962;47.310;9.642;2023-05-10T15:21:39;15.60;67.40
78649;DHT22;67962;47.310;9.642;2023-05-10T15:24:08;15.50;68.20
78649;DHT22;67962;47.310;9.642;2023-05-10T15:26:34;15.60;70.10
78649;DHT22;67962;47.310;9.642;2023-05-10T15:28:59;15.60;69.40
78649;DHT22;67962;47.310;9.642;2023-05-10T15:31:25;15.60;69.60
78649;DHT22;67962;47.310;9.642;2023-05-10T15:33:57;15.50;69.90
78649;DHT22;67962;47.310;9.642;2023-05-10T15:36:24;15.40;70.10
78649;DHT22;67962;47.310;9.642;2023-05-10T15:38:49;15.30;70.70
78649;DHT22;67962;47.310;9.642;2023-05-10T15:41:15;15.20;70.90
78649;DHT22;67962;47.310;9.642;2023-05-10T15:43:41;15.20;71.40
78649;DHT22;67962;47.310;9.642;2023-05-10T15:46:07;15.10;71.30
78649;DHT22;67962;47.310;9.642;2023-05-10T15:48:32;15.10;71.80
78649;DHT22;67962;47.310;9.642;2023-05-10T15:50:58;15.20;70.90
78649;DHT22;67962;47.310;9.642;2023-05-10T15:53:24;15.30;70.50
78649;DHT22;67962;47.310;9.642;2023-05-10T15:55:50;15.30;69.90
78649;DHT22;67962;47.310;9.642;2023-05-10T15:58:16;15.40;69.90
78649;DHT22;67962;47.310;9.642;2023-05-10T16:00:41;15.40;69.80
78649;DHT22;67962;47.310;9.642;2023-05-10T16:03:07;15.40;70.70
78649;DHT22;67962;47.310;9.642;2023-05-10T16:05:33;15.30;71.10
78649;DHT22;67962;47.310;9.642;2023-05-10T16:08:00;15.20;70.90
78649;DHT22;67962;47.310;9.642;2023-05-10T16:10:26;15.20;71.20